createdAt,value
2019-01-29T00:01:59.241Z,97165.00
2019-01-29T00:04:26.320Z,97168.00
2019-01-29T00:06:53.380Z,97155.00
2019-01-29T00:09:20.522Z,97173.00
2019-01-29T00:11:48.120Z,97170.00
2019-01-29T00:14:15.240Z,97172.00
2019-01-29T00:16:42.341Z,97180.00
2019-01-29T00:19:09.419Z,97180.00
2019-01-29T00:21:36.501Z,97176.00
2019-01-29T00:24:04.160Z,97185.00
2019-01-29T00:26:31.265Z,97186.00
2019-01-29T00:28:58.581Z,97186.00
2019-01-29T00:31:25.641Z,97183.00
2019-01-29T00:33:52.780Z,97198.00
2019-01-29T00:36:19.859Z,97191.00
2019-01-29T00:39:09.280Z,97196.00
2019-01-29T00:41:36.380Z,97202.00
2019-01-29T00:44:03.845Z,97205.00
2019-01-29T00:46:30.927Z,97205.00
2019-01-29T00:48:58.280Z,97214.00
2019-01-29T00:51:25.340Z,97211.00
2019-01-29T00:53:52.505Z,97217.00
2019-01-29T00:56:19.600Z,97229.00
2019-01-29T00:58:46.680Z,97224.00
2019-01-29T01:01:13.762Z,97233.00
2019-01-29T01:03:40.820Z,97241.00
2019-01-29T01:06:08.481Z,97233.00
2019-01-29T01:08:35.661Z,97245.00
2019-01-29T01:11:02.780Z,97243.00
2019-01-29T01:13:29.881Z,97249.00
2019-01-29T01:15:57.081Z,97253.00
2019-01-29T01:18:24.120Z,97246.00
2019-01-29T01:20:51.261Z,97257.00
2019-01-29T01:23:18.364Z,97252.00
2019-01-29T01:25:45.519Z,97257.00
2019-01-29T01:28:12.741Z,97262.00
2019-01-29T01:30:39.842Z,97252.00
2019-01-29T01:33:06.940Z,97263.00
2019-01-29T01:35:34.020Z,97271.00
2019-01-29T01:38:01.059Z,97271.00
2019-01-29T01:40:28.123Z,97266.00
2019-01-29T01:42:55.220Z,97272.00
2019-01-29T01:45:22.522Z,97280.00
2019-01-29T01:47:49.721Z,97280.00
2019-01-29T01:50:16.980Z,97289.00
2019-01-29T01:52:44.039Z,97288.00
2019-01-29T01:55:14.540Z,97294.00
2019-01-29T01:57:41.659Z,97292.00
2019-01-29T02:00:13.752Z,97295.00
2019-01-29T02:02:40.860Z,97292.00
2019-01-29T02:05:08.080Z,97285.00
2019-01-29T02:07:35.441Z,97296.00
2019-01-29T02:10:07.000Z,97308.00
2019-01-29T02:12:34.120Z,97310.00
2019-01-29T02:15:01.226Z,97305.00
2019-01-29T02:17:28.320Z,97312.00
2019-01-29T02:19:55.720Z,97313.00
2019-01-29T02:22:22.879Z,97323.00
2019-01-29T02:24:49.960Z,97320.00
2019-01-29T02:27:17.023Z,97329.00
2019-01-29T02:29:44.163Z,97335.00
2019-01-29T02:32:11.182Z,97331.00
2019-01-29T02:34:38.260Z,97340.00
2019-01-29T02:37:05.320Z,97336.00
2019-01-29T02:39:32.420Z,97344.00
2019-01-29T02:41:59.499Z,97347.00
2019-01-29T02:44:26.660Z,97350.00
2019-01-29T02:46:53.800Z,97347.00
2019-01-29T02:49:21.460Z,97359.00
2019-01-29T02:51:48.622Z,97358.00
2019-01-29T02:54:15.762Z,97358.00
2019-01-29T02:56:42.940Z,97364.00
2019-01-29T02:59:10.180Z,97372.00
2019-01-29T03:01:37.214Z,97370.00
2019-01-29T03:04:04.880Z,97361.00
2019-01-29T03:06:32.024Z,97369.00
2019-01-29T03:08:59.580Z,97374.00
2019-01-29T03:11:27.060Z,97375.00
2019-01-29T03:13:54.340Z,97384.00
2019-01-29T03:16:21.382Z,97384.00
2019-01-29T03:18:48.624Z,97388.00
2019-01-29T03:21:15.741Z,97389.00
2019-01-29T03:23:42.885Z,97394.00
2019-01-29T03:26:10.026Z,97395.00
2019-01-29T03:28:37.080Z,97405.00
2019-01-29T03:31:04.225Z,97407.00
2019-01-29T03:33:31.460Z,97406.00
2019-01-29T03:35:58.620Z,97407.00
2019-01-29T03:38:25.980Z,97416.00
2019-01-29T03:40:53.119Z,97423.00
2019-01-29T03:43:20.220Z,97426.00
2019-01-29T03:45:47.421Z,97428.00
2019-01-29T03:48:14.583Z,97431.00
2019-01-29T03:50:41.642Z,97438.00
2019-01-29T03:53:08.764Z,97437.00
2019-01-29T03:55:35.920Z,97442.00
2019-01-29T03:58:03.162Z,97447.00
2019-01-29T04:00:30.304Z,97445.00
2019-01-29T04:02:57.380Z,97445.00
2019-01-29T04:05:24.501Z,97453.00
2019-01-29T04:07:51.560Z,97455.00
2019-01-29T04:10:19.590Z,97457.00
2019-01-29T04:12:46.783Z,97461.00
2019-01-29T04:15:19.985Z,97458.00
2019-01-29T04:17:47.360Z,97468.00
2019-01-29T04:20:18.820Z,97477.00
2019-01-29T04:22:46.192Z,97474.00
2019-01-29T04:25:13.701Z,97467.00
2019-01-29T04:27:40.740Z,97481.00
2019-01-29T04:30:14.543Z,97482.00
2019-01-29T04:32:41.619Z,97485.00
2019-01-29T04:35:08.881Z,97489.00
2019-01-29T04:37:36.001Z,97493.00
2019-01-29T04:40:08.160Z,97492.00
2019-01-29T04:42:35.259Z,97499.00
2019-01-29T04:45:04.681Z,97497.00
2019-01-29T04:47:31.701Z,97499.00
2019-01-29T04:49:58.778Z,97513.00
2019-01-29T04:52:25.921Z,97511.00
2019-01-29T04:54:52.981Z,97505.00
2019-01-29T04:57:20.142Z,97517.00
2019-01-29T04:59:48.021Z,97524.00
2019-01-29T05:02:15.079Z,97522.00
2019-01-29T05:04:42.281Z,97517.00
2019-01-29T05:07:09.460Z,97521.00
2019-01-29T05:09:36.480Z,97523.00
2019-01-29T05:12:03.797Z,97541.00
2019-01-29T05:14:30.902Z,97530.00
2019-01-29T05:16:58.026Z,97543.00
2019-01-29T05:19:25.180Z,97542.00
2019-01-29T05:21:52.340Z,97545.00
2019-01-29T05:24:19.483Z,97555.00
2019-01-29T05:26:46.819Z,97549.00
2019-01-29T05:29:13.984Z,97558.00
2019-01-29T05:31:41.121Z,97550.00
2019-01-29T05:34:08.180Z,97560.00
2019-01-29T05:36:35.425Z,97572.00
2019-01-29T05:39:04.723Z,97565.00
2019-01-29T05:41:31.940Z,97573.00
2019-01-29T05:43:58.980Z,97578.00
2019-01-29T05:46:26.120Z,97584.00
2019-01-29T05:48:53.161Z,97589.00
2019-01-29T05:51:20.181Z,97587.00
2019-01-29T05:53:47.260Z,97591.00
2019-01-29T05:56:14.339Z,97592.00
2019-01-29T05:58:41.422Z,97594.00
2019-01-29T06:01:08.460Z,97600.00
2019-01-29T06:03:35.984Z,97609.00
2019-01-29T06:06:03.781Z,97608.00
2019-01-29T06:08:30.940Z,97608.00
2019-01-29T06:10:58.040Z,97616.00
2019-01-29T06:13:25.140Z,97624.00
2019-01-29T06:15:52.300Z,97618.00
2019-01-29T06:18:19.420Z,97631.00
2019-01-29T06:20:46.480Z,97635.00
2019-01-29T06:23:13.558Z,97637.00
2019-01-29T06:25:40.641Z,97637.00
2019-01-29T06:28:07.740Z,97636.00
2019-01-29T06:30:35.204Z,97633.00
2019-01-29T06:33:02.261Z,97642.00
2019-01-29T06:35:29.327Z,97645.00
2019-01-29T06:37:57.638Z,97643.00
2019-01-29T06:40:27.480Z,97650.00
2019-01-29T06:42:54.601Z,97641.00
2019-01-29T06:45:24.040Z,97645.00
2019-01-29T06:47:51.319Z,97651.00
2019-01-29T06:50:24.601Z,97664.00
2019-01-29T06:52:51.959Z,97657.00
2019-01-29T06:55:21.521Z,97669.00
2019-01-29T06:58:08.341Z,97670.00
2019-01-29T07:00:35.521Z,97671.00
2019-01-29T07:03:03.220Z,97680.00
2019-01-29T07:05:30.306Z,97676.00
2019-01-29T07:07:57.419Z,97673.00
2019-01-29T07:10:26.719Z,97684.00
2019-01-29T07:12:53.920Z,97684.00
2019-01-29T07:15:45.997Z,97683.00
2019-01-29T07:18:21.320Z,97691.00
2019-01-29T07:20:48.383Z,97695.00
2019-01-29T07:23:15.480Z,97703.00
2019-01-29T07:25:42.785Z,97713.00
2019-01-29T07:28:09.820Z,97702.00
2019-01-29T07:30:36.950Z,97718.00
2019-01-29T07:33:04.013Z,97717.00
2019-01-29T07:35:31.100Z,97726.00
2019-01-29T07:37:58.201Z,97717.00
2019-01-29T07:40:25.329Z,97727.00
2019-01-29T07:42:52.400Z,97734.00
2019-01-29T07:45:19.639Z,97739.00
2019-01-29T07:47:47.021Z,97735.00
2019-01-29T07:50:14.060Z,97740.00
2019-01-29T07:52:41.141Z,97742.00
2019-01-29T07:55:10.042Z,97752.00
2019-01-29T07:57:37.280Z,97747.00
2019-01-29T08:00:12.143Z,97753.00
2019-01-29T08:02:39.900Z,97755.00
2019-01-29T08:05:10.421Z,97752.00
2019-01-29T08:07:37.540Z,97770.00
2019-01-29T08:10:14.940Z,97756.00
2019-01-29T08:12:42.025Z,97761.00
2019-01-29T08:15:20.599Z,97755.00
2019-01-29T08:17:47.679Z,97767.00
2019-01-29T08:20:16.924Z,97766.00
2019-01-29T08:22:44.221Z,97758.00
2019-01-29T08:25:11.709Z,97758.00
2019-01-29T08:27:39.120Z,97768.00
2019-01-29T08:30:13.580Z,97769.00
2019-01-29T08:32:41.680Z,97777.00
2019-01-29T08:35:12.140Z,97777.00
2019-01-29T08:37:39.240Z,97793.00
2019-01-29T08:40:10.079Z,97782.00
2019-01-29T08:42:37.140Z,97790.00
2019-01-29T08:45:09.160Z,97785.00
2019-01-29T08:47:36.620Z,97777.00
2019-01-29T08:50:09.219Z,97784.00
2019-01-29T08:52:36.300Z,97782.00
2019-01-29T08:55:10.787Z,97780.00
2019-01-29T08:57:34.899Z,97788.00
2019-01-29T09:00:04.060Z,97790.00
2019-01-29T09:02:31.139Z,97788.00
2019-01-29T09:04:58.188Z,97794.00
2019-01-29T09:07:25.219Z,97805.00
2019-01-29T09:09:52.340Z,97800.00
2019-01-29T09:12:19.415Z,97792.00
2019-01-29T09:14:46.610Z,97786.00
2019-01-29T09:17:13.959Z,97791.00
2019-01-29T09:19:41.041Z,97792.00
2019-01-29T09:22:08.159Z,97789.00
2019-01-29T09:24:35.380Z,97793.00
2019-01-29T09:27:02.442Z,97798.00
2019-01-29T09:29:29.481Z,97799.00
2019-01-29T09:31:56.540Z,97802.00
2019-01-29T09:34:23.660Z,97804.00
2019-01-29T09:36:50.922Z,97797.00
2019-01-29T09:39:18.119Z,97802.00
2019-01-29T09:41:45.177Z,97798.00
2019-01-29T09:44:12.317Z,97805.00
2019-01-29T09:46:39.478Z,97801.00
2019-01-29T09:49:07.097Z,97794.00
2019-01-29T09:51:34.217Z,97805.00
2019-01-29T09:54:01.241Z,97797.00
2019-01-29T09:56:28.318Z,97800.00
2019-01-29T09:58:55.439Z,97795.00
2019-01-29T10:01:22.458Z,97802.00
2019-01-29T10:03:49.617Z,97800.00
2019-01-29T10:06:16.658Z,97788.00
2019-01-29T10:08:43.797Z,97798.00
2019-01-29T10:11:11.198Z,97794.00
2019-01-29T10:13:38.278Z,97786.00
2019-01-29T10:16:05.417Z,97780.00
2019-01-29T10:18:32.498Z,97787.00
2019-01-29T10:20:59.619Z,97780.00
2019-01-29T10:23:27.177Z,97782.00
2019-01-29T10:25:54.237Z,97789.00
2019-01-29T10:28:21.317Z,97783.00
2019-01-29T10:30:48.447Z,97776.00
2019-01-29T10:33:15.572Z,97778.00
2019-01-29T10:35:42.672Z,97767.00
2019-01-29T10:38:10.252Z,97769.00
2019-01-29T10:40:37.331Z,97768.00
2019-01-29T10:43:05.533Z,97758.00
2019-01-29T10:45:32.553Z,97767.00
2019-01-29T10:47:59.614Z,97761.00
2019-01-29T10:50:30.053Z,97762.00
2019-01-29T10:52:58.110Z,97747.00
2019-01-29T10:55:25.631Z,97756.00
2019-01-29T10:57:52.869Z,97758.00
2019-01-29T11:00:30.076Z,97749.00
2019-01-29T11:02:57.196Z,97749.00
2019-01-29T11:05:24.291Z,97748.00
2019-01-29T11:07:51.856Z,97733.00
2019-01-29T11:10:20.651Z,97737.00
2019-01-29T11:12:47.855Z,97729.00
2019-01-29T11:15:25.851Z,97730.00
2019-01-29T11:17:53.331Z,97724.00
2019-01-29T11:20:20.771Z,97726.00
2019-01-29T11:22:48.138Z,97720.00
2019-01-29T11:25:20.111Z,97715.00
2019-01-29T11:27:47.592Z,97721.00
2019-01-29T11:30:19.472Z,97712.00
2019-01-29T11:32:47.011Z,97715.00
2019-01-29T11:35:14.354Z,97718.00
2019-01-29T11:37:41.412Z,97716.00
2019-01-29T11:40:13.971Z,97724.00
2019-01-29T11:42:41.231Z,97720.00
2019-01-29T11:45:13.752Z,97727.00
2019-01-29T11:47:40.811Z,97731.00
2019-01-29T11:50:09.511Z,97737.00
2019-01-29T11:52:36.552Z,97734.00
2019-01-29T11:55:08.151Z,97734.00
2019-01-29T11:57:35.194Z,97731.00
2019-01-29T12:00:04.071Z,97730.00
2019-01-29T12:02:31.161Z,97732.00
2019-01-29T12:04:58.464Z,97727.00
2019-01-29T12:07:25.660Z,97732.00
2019-01-29T12:09:52.741Z,97733.00
2019-01-29T12:12:20.241Z,97732.00
2019-01-29T12:14:47.521Z,97721.00
2019-01-29T12:17:14.959Z,97712.00
2019-01-29T12:19:42.062Z,97714.00
2019-01-29T12:22:09.085Z,97713.00
2019-01-29T12:24:36.182Z,97718.00
2019-01-29T12:27:03.265Z,97708.00
2019-01-29T12:29:30.301Z,97714.00
2019-01-29T12:31:57.403Z,97706.00
2019-01-29T12:34:24.420Z,97705.00
2019-01-29T12:36:51.561Z,97704.00
2019-01-29T12:39:18.640Z,97709.00
2019-01-29T12:41:45.740Z,97704.00
2019-01-29T12:44:12.880Z,97696.00
2019-01-29T12:46:39.942Z,97697.00
2019-01-29T12:49:06.981Z,97690.00
2019-01-29T12:51:35.047Z,97695.00
2019-01-29T12:54:02.162Z,97698.00
2019-01-29T12:56:29.269Z,97692.00
2019-01-29T12:58:56.590Z,97693.00
2019-01-29T13:01:23.669Z,97688.00
2019-01-29T13:03:50.838Z,97684.00
2019-01-29T13:06:17.930Z,97684.00
2019-01-29T13:08:45.004Z,97674.00
2019-01-29T13:11:12.509Z,97674.00
2019-01-29T13:13:39.708Z,97678.00
2019-01-29T13:16:07.269Z,97665.00
2019-01-29T13:18:34.327Z,97667.00
2019-01-29T13:21:01.414Z,97668.00
2019-01-29T13:23:28.548Z,97661.00
2019-01-29T13:25:55.587Z,97664.00
2019-01-29T13:28:22.729Z,97657.00
2019-01-29T13:30:49.748Z,97671.00
2019-01-29T13:33:16.889Z,97667.00
2019-01-29T13:35:44.191Z,97652.00
2019-01-29T13:38:11.450Z,97660.00
2019-01-29T13:40:38.561Z,97657.00
2019-01-29T13:43:06.664Z,97659.00
2019-01-29T13:45:34.327Z,97650.00
2019-01-29T13:48:01.549Z,97649.00
2019-01-29T13:50:39.826Z,97651.00
2019-01-29T13:53:06.926Z,97648.00
2019-01-29T13:55:34.607Z,97638.00
2019-01-29T13:58:01.669Z,97637.00
2019-01-29T14:00:31.907Z,97631.00
2019-01-29T14:02:59.297Z,97627.00
2019-01-29T14:05:26.516Z,97622.00
2019-01-29T14:07:53.637Z,97624.00
2019-01-29T14:10:20.816Z,97617.00
2019-01-29T14:12:47.952Z,97614.00
2019-01-29T14:15:25.616Z,97616.00
2019-01-29T14:17:52.885Z,97613.00
2019-01-29T14:20:20.117Z,97611.00
2019-01-29T14:22:47.270Z,97609.00
2019-01-29T14:25:14.416Z,97611.00
2019-01-29T14:27:41.637Z,97604.00
2019-01-29T14:30:21.957Z,97605.00
2019-01-29T14:32:49.216Z,97606.00
2019-01-29T14:35:16.453Z,97599.00
2019-01-29T14:38:16.677Z,97604.00
2019-01-29T14:40:48.575Z,97603.00
2019-01-29T14:43:21.179Z,97595.00
2019-01-29T14:45:48.620Z,97604.00
2019-01-29T14:48:15.696Z,97604.00
2019-01-29T14:50:42.861Z,97603.00
2019-01-29T14:53:10.356Z,97603.00
2019-01-29T14:55:37.557Z,97606.00
2019-01-29T14:58:04.674Z,97606.00
2019-01-29T15:00:40.916Z,97607.00
2019-01-29T15:03:07.977Z,97612.00
2019-01-29T15:05:35.158Z,97603.00
2019-01-29T15:08:02.564Z,97602.00
2019-01-29T15:10:31.396Z,97601.00
2019-01-29T15:12:59.199Z,97607.00
2019-01-29T15:15:30.433Z,97606.00
2019-01-29T15:18:02.516Z,97605.00
2019-01-29T15:20:30.236Z,97607.00
2019-01-29T15:22:57.310Z,97606.00
2019-01-29T15:25:24.354Z,97607.00
2019-01-29T15:27:51.470Z,97607.00
2019-01-29T15:30:25.674Z,97602.00
2019-01-29T15:32:52.751Z,97601.00
2019-01-29T15:35:19.939Z,97606.00
2019-01-29T15:37:47.127Z,97605.00
2019-01-29T15:40:17.926Z,97602.00
2019-01-29T15:42:45.137Z,97606.00
2019-01-29T15:45:16.970Z,97608.00
2019-01-29T15:47:44.739Z,97600.00
2019-01-29T15:50:16.962Z,97601.00
2019-01-29T15:52:48.728Z,97597.00
2019-01-29T15:55:16.569Z,97598.00
2019-01-29T15:57:47.050Z,97601.00
2019-01-29T16:00:25.691Z,97600.00
2019-01-29T16:02:53.330Z,97600.00
2019-01-29T16:05:52.904Z,97605.00
2019-01-29T16:08:19.999Z,97603.00
2019-01-29T16:10:47.144Z,97603.00
2019-01-29T16:13:14.243Z,97609.00
2019-01-29T16:15:42.315Z,97604.00
2019-01-29T16:18:10.805Z,97601.00
2019-01-29T16:20:38.086Z,97605.00
2019-01-29T16:23:05.323Z,97606.00
2019-01-29T16:25:35.423Z,97599.00
2019-01-29T16:28:02.765Z,97604.00
2019-01-29T16:30:33.712Z,97599.00
2019-01-29T16:33:01.156Z,97606.00
2019-01-29T16:35:34.334Z,97595.00
2019-01-29T16:38:01.397Z,97592.00
2019-01-29T16:40:36.128Z,97586.00
2019-01-29T16:43:03.860Z,97592.00
2019-01-29T16:45:32.755Z,97594.00
2019-01-29T16:48:01.321Z,97588.00
2019-01-29T16:50:28.608Z,97588.00
2019-01-29T16:52:55.847Z,97590.00
2019-01-29T16:55:23.684Z,97600.00
2019-01-29T16:57:50.908Z,97594.00
2019-01-29T17:00:28.849Z,97586.00
2019-01-29T17:02:56.269Z,97584.00
2019-01-29T17:05:23.856Z,97589.00
2019-01-29T17:07:51.199Z,97578.00
2019-01-29T17:10:24.873Z,97579.00
2019-01-29T17:12:51.992Z,97577.00
2019-01-29T17:15:23.012Z,97577.00
2019-01-29T17:17:50.034Z,97567.00
2019-01-29T17:20:25.113Z,97576.00
2019-01-29T17:22:52.169Z,97575.00
2019-01-29T17:25:19.227Z,97562.00
2019-01-29T17:27:46.321Z,97560.00
2019-01-29T17:30:41.107Z,97565.00
2019-01-29T17:33:08.986Z,97553.00
2019-01-29T17:35:38.646Z,97553.00
2019-01-29T17:38:05.907Z,97559.00
2019-01-29T17:40:32.985Z,97546.00
2019-01-29T17:43:00.386Z,97550.00
2019-01-29T17:45:49.408Z,97544.00
2019-01-29T17:48:16.630Z,97542.00
2019-01-29T17:50:45.156Z,97542.00
2019-01-29T17:53:12.288Z,97542.00
2019-01-29T17:55:41.531Z,97540.00
2019-01-29T17:58:10.409Z,97535.00
2019-01-29T18:00:39.669Z,97532.00
2019-01-29T18:03:07.050Z,97530.00
2019-01-29T18:05:34.966Z,97530.00
2019-01-29T18:08:02.589Z,97533.00
2019-01-29T18:10:29.709Z,97521.00
2019-01-29T18:12:56.808Z,97518.00
2019-01-29T18:15:29.596Z,97515.00
2019-01-29T18:17:57.497Z,97503.00
2019-01-29T18:20:24.849Z,97501.00
2019-01-29T18:22:52.969Z,97502.00
2019-01-29T18:25:22.668Z,97498.00
2019-01-29T18:27:49.768Z,97491.00
2019-01-29T18:30:25.369Z,97487.00
2019-01-29T18:32:52.508Z,97493.00
2019-01-29T18:35:20.269Z,97482.00
2019-01-29T18:37:47.376Z,97488.00
2019-01-29T18:40:31.696Z,97479.00
2019-01-29T18:42:58.772Z,97481.00
2019-01-29T18:45:26.028Z,97480.00
2019-01-29T18:47:53.129Z,97473.00
2019-01-29T18:50:20.870Z,97466.00
2019-01-29T18:52:48.008Z,97462.00
2019-01-29T18:55:15.202Z,97464.00
2019-01-29T18:57:42.816Z,97467.00
2019-01-29T19:00:19.368Z,97462.00
2019-01-29T19:02:46.489Z,97449.00
2019-01-29T19:05:14.837Z,97454.00
2019-01-29T19:07:44.720Z,97451.00
2019-01-29T19:10:15.249Z,97451.00
2019-01-29T19:12:42.449Z,97446.00
2019-01-29T19:15:16.510Z,97451.00
2019-01-29T19:17:43.626Z,97449.00
2019-01-29T19:20:15.866Z,97446.00
2019-01-29T19:22:42.947Z,97446.00
2019-01-29T19:25:13.685Z,97445.00
2019-01-29T19:27:40.793Z,97440.00
2019-01-29T19:30:13.454Z,97444.00
2019-01-29T19:32:40.715Z,97446.00
2019-01-29T19:35:08.655Z,97442.00
2019-01-29T19:37:35.835Z,97444.00
2019-01-29T19:40:08.814Z,97444.00
2019-01-29T19:42:36.495Z,97439.00
2019-01-29T19:45:11.955Z,97439.00
2019-01-29T19:47:39.176Z,97434.00
2019-01-29T19:50:17.374Z,97435.00
2019-01-29T19:52:44.835Z,97421.00
2019-01-29T19:55:12.075Z,97422.00
2019-01-29T19:57:39.235Z,97413.00
2019-01-29T20:00:20.542Z,97415.00
2019-01-29T20:02:47.654Z,97414.00
2019-01-29T20:05:15.236Z,97410.00
2019-01-29T20:07:42.737Z,97412.00
2019-01-29T20:10:15.234Z,97399.00
2019-01-29T20:12:42.494Z,97414.00
2019-01-29T20:15:13.775Z,97395.00
2019-01-29T20:17:41.095Z,97399.00
2019-01-29T20:20:16.354Z,97400.00
2019-01-29T20:22:43.596Z,97396.00
2019-01-29T20:25:10.734Z,97395.00
2019-01-29T20:27:37.894Z,97397.00
2019-01-29T20:30:24.255Z,97397.00
2019-01-29T20:32:53.387Z,97396.00
2019-01-29T20:35:20.536Z,97390.00
2019-01-29T20:37:47.635Z,97387.00
2019-01-29T20:40:18.336Z,97391.00
2019-01-29T20:42:45.559Z,97386.00
2019-01-29T20:45:14.474Z,97387.00
2019-01-29T20:47:41.774Z,97379.00
2019-01-29T20:50:30.155Z,97383.00
2019-01-29T20:52:57.294Z,97371.00
2019-01-29T20:55:24.554Z,97366.00
2019-01-29T20:57:52.071Z,97370.00
2019-01-29T21:00:26.856Z,97361.00
2019-01-29T21:02:54.486Z,97351.00
2019-01-29T21:05:21.746Z,97350.00
2019-01-29T21:07:49.526Z,97352.00
2019-01-29T21:10:20.406Z,97341.00
2019-01-29T21:12:47.785Z,97329.00
2019-01-29T21:15:17.907Z,97323.00
2019-01-29T21:17:45.685Z,97318.00
2019-01-29T21:20:15.887Z,97321.00
2019-01-29T21:22:43.445Z,97318.00
2019-01-29T21:25:10.826Z,97305.00
2019-01-29T21:27:38.061Z,97311.00
2019-01-29T21:30:28.863Z,97295.00
2019-01-29T21:32:56.162Z,97297.00
2019-01-29T21:35:23.982Z,97297.00
2019-01-29T21:37:52.223Z,97296.00
2019-01-29T21:40:19.738Z,97281.00
2019-01-29T21:42:46.864Z,97281.00
2019-01-29T21:45:19.606Z,97274.00
2019-01-29T21:47:47.945Z,97277.00
2019-01-29T21:50:31.445Z,97266.00
2019-01-29T21:52:58.593Z,97261.00
2019-01-29T21:55:26.546Z,97256.00
2019-01-29T21:57:54.145Z,97249.00
2019-01-29T22:00:27.045Z,97239.00
2019-01-29T22:02:54.266Z,97245.00
2019-01-29T22:05:21.627Z,97245.00
2019-01-29T22:07:48.885Z,97237.00
2019-01-29T22:10:16.405Z,97228.00
2019-01-29T22:12:44.186Z,97223.00
2019-01-29T22:15:15.528Z,97226.00
2019-01-29T22:17:43.365Z,97231.00
2019-01-29T22:20:15.609Z,97221.00
2019-01-29T22:22:43.011Z,97218.00
2019-01-29T22:25:13.548Z,97213.00
2019-01-29T22:27:41.119Z,97207.00
2019-01-29T22:30:24.779Z,97205.00
2019-01-29T22:32:52.079Z,97208.00
2019-01-29T22:35:19.401Z,97203.00
2019-01-29T22:37:46.584Z,97204.00
2019-01-29T22:40:22.806Z,97197.00
2019-01-29T22:42:50.299Z,97193.00
2019-01-29T22:45:17.858Z,97188.00
2019-01-29T22:47:45.722Z,97179.00
2019-01-29T22:50:29.219Z,97180.00
2019-01-29T22:52:56.418Z,97170.00
2019-01-29T22:55:24.099Z,97161.00
2019-01-29T22:57:51.320Z,97150.00
2019-01-29T23:00:52.638Z,97154.00
2019-01-29T23:03:24.220Z,97143.00
2019-01-29T23:06:18.099Z,97135.00
2019-01-29T23:08:45.239Z,97135.00
2019-01-29T23:11:12.398Z,97126.00
2019-01-29T23:13:39.539Z,97120.00
2019-01-29T23:16:06.698Z,97126.00
2019-01-29T23:18:33.839Z,97114.00
2019-01-29T23:21:01.098Z,97117.00
2019-01-29T23:23:28.239Z,97115.00
2019-01-29T23:25:55.399Z,97097.00
2019-01-29T23:28:22.659Z,97097.00
2019-01-29T23:30:49.779Z,97090.00
2019-01-29T23:33:17.159Z,97086.00
2019-01-29T23:35:44.279Z,97081.00
2019-01-29T23:38:11.438Z,97079.00
2019-01-29T23:40:38.799Z,97072.00
2019-01-29T23:43:05.939Z,97066.00
2019-01-29T23:45:33.199Z,97064.00
2019-01-29T23:48:00.258Z,97054.00
2019-01-29T23:50:28.579Z,97049.00
2019-01-29T23:52:55.658Z,97049.00
2019-01-29T23:55:22.719Z,97050.00
2019-01-29T23:57:49.859Z,97041.00
